Ana Sayfa
METAR-TAF:

METAR-TAF

Havaalanları :

Huntsville, Alabama, Amerika Birleşik Devletleri

Enlem: 34-51-41N, Boylam: 086-33-26W, yükseklik: 230 m

Güncel hava durumu gözlemi

Rapor saat 17:15 UTC de 12 dakika önce yapıldı.
Rüzgar batıdan 3 kt
Sıcaklık 33°C
Nem 39%
Basınç 1016 hPa
Görüş mesafesi: 16.1 km
Açık gökyüzü

METAR: KMDQ 251715Z AUTO 28003KT 10SM CLR 33/17 A3001 RMK A02 T03280168

Saat: 12:27 (17:27 UTC)


TAF: eksik

4.000'den fazla havaalanı için hava durumu gözlemleri ve tahminleri (METAR ve TAF raporları).

Kullanılabilir istasyonlar harita üzerinde sarı ve kırmızı noktalarla gösterilir.

İstasyonun adını görmek için fareyi noktanın üzerinde gezdirin.

Sonrasında hava gözlem ve tahminlerini görmek için tıklayın.

Haritayı değiştirmek için: yaklaştırmak için siyah artı işaretli yeşil düğmeye ve uzaklaştırmak için de eksi işaretli düğmeye hızla tıklayın; bitişik haritalar için yeşil okları kullanın.


METAR-TAF: